Time;durP1;ratioP1;P1;durP2;ratioP2;P2;SDS_P1;SDS_P2;PMS_P1;PMS_P2;Temp;Humidity;BMP_temperature;BMP_pressure;BME280_temperature;BME280_humidity;BME280_pressure;Samples;Min_cycle;Max_cycle;Signal;HPM_P1;HPM_P2
2020/12/23 00:01:19;;;;;;;1999.90;999.90;;;12.20;99.90;;;;;;4995843;28;20173;-81
2020/12/23 00:03:45;;;;;;;1999.90;999.90;;;12.20;99.90;;;;;;4995369;28;20569;-81
2020/12/23 00:06:11;;;;;;;1999.90;999.90;;;12.20;99.90;;;;;;4994841;28;20282;-81
2020/12/23 00:08:36;;;;;;;1999.90;999.90;;;12.20;99.90;;;;;;4996040;28;20206;-81
2020/12/23 00:11:02;;;;;;;1999.90;999.90;;;12.20;99.90;;;;;;4996266;28;20182;-81
2020/12/23 00:13:28;;;;;;;1999.90;999.90;;;12.30;99.90;;;;;;4995710;28;20174;-81
2020/12/23 00:15:54;;;;;;;1999.90;999.90;;;12.30;99.90;;;;;;4996054;28;20194;-81
2020/12/23 00:18:20;;;;;;;1999.90;999.90;;;12.20;99.90;;;;;;4996287;28;20488;-81
2020/12/23 00:20:45;;;;;;;1999.90;999.90;;;12.30;99.90;;;;;;4996100;28;20169;-81
2020/12/23 00:23:14;;;;;;;1999.90;999.90;;;12.20;99.90;;;;;;4996524;28;20162;-81
2020/12/23 00:25:40;;;;;;;1999.90;999.90;;;12.20;99.90;;;;;;4995857;28;20173;-81
2020/12/23 00:28:05;;;;;;;1999.90;999.90;;;12.20;99.90;;;;;;4995826;28;20246;-81
2020/12/23 00:30:31;;;;;;;1999.90;999.90;;;12.20;99.90;;;;;;4996039;28;20171;-81
2020/12/23 00:32:56;;;;;;;1999.90;999.90;;;12.20;99.90;;;;;;4996080;28;20170;-81
2020/12/23 00:35:22;;;;;;;1999.90;999.90;;;12.20;99.90;;;;;;4995544;28;20195;-81
2020/12/23 00:37:48;;;;;;;1999.90;999.90;;;12.20;99.90;;;;;;4995479;28;20165;-81
2020/12/23 00:40:13;;;;;;;1999.90;999.90;;;12.20;99.90;;;;;;4995588;28;20201;-81
2020/12/23 00:42:39;;;;;;;1999.90;999.90;;;12.20;99.90;;;;;;4995759;28;20163;-81
2020/12/23 00:45:08;;;;;;;1999.90;999.90;;;12.20;99.90;;;;;;4995511;28;20638;-81
2020/12/23 00:47:34;;;;;;;1999.90;999.90;;;12.20;99.90;;;;;;4994795;28;20496;-81
2020/12/23 00:49:59;;;;;;;1999.90;999.90;;;12.20;99.90;;;;;;4999294;28;20219;-81
2020/12/23 00:52:25;;;;;;;1999.90;999.90;;;12.20;99.90;;;;;;4998756;28;20173;-81
2020/12/23 00:54:51;;;;;;;1999.90;999.90;;;12.20;99.90;;;;;;4999747;28;20197;-81
2020/12/23 00:57:16;;;;;;;1999.90;999.90;;;12.20;99.90;;;;;;4999381;28;20163;-81
2020/12/23 00:59:42;;;;;;;1999.90;999.90;;;12.20;99.90;;;;;;4999362;28;20167;-81
2020/12/23 01:02:07;;;;;;;1999.90;999.90;;;12.20;99.90;;;;;;4999613;28;20656;-81
2020/12/23 01:04:33;;;;;;;1999.90;999.90;;;12.20;99.90;;;;;;4998004;28;20201;-81
2020/12/23 01:06:59;;;;;;;1999.90;999.90;;;12.20;99.90;;;;;;4998994;28;20166;-81
2020/12/23 01:09:24;;;;;;;1999.90;999.90;;;12.20;99.90;;;;;;4999475;28;20203;-81
2020/12/23 01:11:51;;;;;;;1999.90;999.90;;;12.20;99.90;;;;;;5000288;28;20247;-81
2020/12/23 01:14:17;;;;;;;1999.90;999.90;;;12.10;99.90;;;;;;4998534;28;20173;-81
2020/12/23 01:16:44;;;;;;;1999.90;999.90;;;12.10;99.90;;;;;;4999024;28;20167;-81
2020/12/23 01:19:09;;;;;;;1999.90;999.90;;;12.10;99.90;;;;;;4999198;28;20174;-81
2020/12/23 01:21:35;;;;;;;1999.90;999.90;;;12.10;99.90;;;;;;4999358;28;20158;-81
2020/12/23 01:24:01;;;;;;;1999.90;999.90;;;12.10;99.90;;;;;;4998873;28;20174;-81
2020/12/23 01:26:26;;;;;;;1999.90;999.90;;;12.10;99.90;;;;;;4999092;28;20245;-81
2020/12/23 01:28:52;;;;;;;1999.90;999.90;;;12.10;99.90;;;;;;4998863;28;20162;-81
2020/12/23 01:31:18;;;;;;;1999.90;999.90;;;12.10;99.90;;;;;;4998852;28;20266;-81
2020/12/23 01:33:43;;;;;;;1999.90;999.90;;;12.10;99.90;;;;;;4999174;28;20521;-81
2020/12/23 01:36:10;;;;;;;1999.90;999.90;;;12.10;99.90;;;;;;4998023;28;20194;-81
2020/12/23 01:38:36;;;;;;;1999.90;999.90;;;12.10;99.90;;;;;;4998707;28;20588;-81
2020/12/23 01:41:04;;;;;;;1999.90;999.90;;;12.10;99.90;;;;;;4998445;28;20634;-81
2020/12/23 01:43:30;;;;;;;1999.90;999.90;;;12.10;99.90;;;;;;4997213;28;20170;-81
2020/12/23 01:45:56;;;;;;;1999.90;999.90;;;12.10;99.90;;;;;;4997623;28;20171;-81
2020/12/23 01:48:32;;;;;;;1999.90;999.90;;;12.10;99.90;;;;;;4998342;28;20170;-81
2020/12/23 01:51:02;;;;;;;1999.90;999.90;;;12.10;99.90;;;;;;4997610;28;20167;-81
2020/12/23 01:53:28;;;;;;;1999.90;999.90;;;12.10;99.90;;;;;;4998433;28;20159;-81
2020/12/23 01:55:56;;;;;;;1999.90;999.90;;;12.10;99.90;;;;;;4997039;28;20232;-81
2020/12/23 01:58:21;;;;;;;1999.90;999.90;;;12.20;99.90;;;;;;4998844;28;20170;-81
2020/12/23 02:00:47;;;;;;;1999.90;999.90;;;12.20;99.90;;;;;;4997729;28;20517;-81
2020/12/23 02:03:13;;;;;;;1999.90;999.90;;;12.20;99.90;;;;;;5068606;23;20237;-79
2020/12/23 02:05:41;;;;;;;1999.90;999.90;;;12.20;99.90;;;;;;4997938;28;20192;-79
2020/12/23 02:08:07;;;;;;;1999.90;999.90;;;12.20;99.90;;;;;;4998193;28;20924;-79
2020/12/23 02:10:33;;;;;;;1999.90;999.90;;;12.20;99.90;;;;;;4997665;28;20185;-79
2020/12/23 02:12:59;;;;;;;1999.90;999.90;;;12.20;99.90;;;;;;4999381;28;20402;-79
2020/12/23 02:15:25;;;;;;;1999.90;999.90;;;12.20;99.90;;;;;;4998862;28;20588;-79
2020/12/23 02:17:50;;;;;;;1999.90;999.90;;;12.20;99.90;;;;;;4999333;28;20249;-79
2020/12/23 02:20:17;;;;;;;1999.90;999.90;;;12.20;99.90;;;;;;4998855;28;20190;-79
2020/12/23 02:22:46;;;;;;;1999.90;999.90;;;12.20;99.90;;;;;;4998831;28;20174;-79
2020/12/23 02:25:13;;;;;;;1999.90;999.90;;;12.20;99.90;;;;;;4998892;28;20202;-79
2020/12/23 02:27:40;;;;;;;1999.90;999.90;;;12.20;99.90;;;;;;4998600;28;20174;-79
2020/12/23 02:30:08;;;;;;;1999.90;999.90;;;12.10;99.90;;;;;;4997661;28;20253;-79
2020/12/23 02:32:34;;;;;;;1999.90;999.90;;;12.10;99.90;;;;;;4997858;28;20171;-79
2020/12/23 02:35:00;;;;;;;1999.90;999.90;;;12.10;99.90;;;;;;4996932;28;20190;-79
2020/12/23 02:37:26;;;;;;;1999.90;999.90;;;12.10;99.90;;;;;;4997581;28;20525;-79
2020/12/23 02:39:54;;;;;;;1999.90;999.90;;;12.00;99.90;;;;;;4997317;28;20402;-79
2020/12/23 02:42:22;;;;;;;1999.90;999.90;;;12.00;99.90;;;;;;4997781;28;20234;-79
2020/12/23 02:44:48;;;;;;;1999.90;999.90;;;12.00;99.90;;;;;;4996608;28;20721;-79
2020/12/23 02:47:15;;;;;;;1999.90;999.90;;;12.00;99.90;;;;;;4997701;28;20179;-79
2020/12/23 02:49:42;;;;;;;1999.90;999.90;;;11.90;99.90;;;;;;4997571;28;20167;-79
2020/12/23 02:52:08;;;;;;;1999.90;999.90;;;11.90;99.90;;;;;;4997778;28;20577;-79
2020/12/23 02:54:35;;;;;;;1999.90;999.90;;;11.90;99.90;;;;;;4998717;28;20190;-79
2020/12/23 02:57:01;;;;;;;1999.90;999.90;;;11.90;99.90;;;;;;4998434;28;20223;-79
2020/12/23 02:59:26;;;;;;;1999.90;999.90;;;11.80;99.90;;;;;;4997779;28;20634;-79
2020/12/23 03:01:52;;;;;;;1999.90;999.90;;;11.80;99.90;;;;;;4998145;28;20195;-79
2020/12/23 03:04:18;;;;;;;1999.90;999.90;;;11.80;99.90;;;;;;4998072;28;20390;-79
2020/12/23 03:06:44;;;;;;;1999.90;999.90;;;11.80;99.90;;;;;;4998210;28;20404;-79
2020/12/23 03:09:11;;;;;;;1999.90;999.90;;;11.90;99.90;;;;;;4998081;28;20398;-79
2020/12/23 03:11:37;;;;;;;1999.90;999.90;;;11.80;99.90;;;;;;4996742;28;20177;-79
2020/12/23 03:14:04;;;;;;;1999.90;999.90;;;11.80;99.90;;;;;;4998100;28;20225;-79
2020/12/23 03:16:30;;;;;;;1999.90;999.90;;;11.80;99.90;;;;;;4998738;28;20281;-79
2020/12/23 03:18:56;;;;;;;1999.90;999.90;;;11.80;99.90;;;;;;4997588;28;20715;-79
2020/12/23 03:21:21;;;;;;;1999.90;999.90;;;11.90;99.90;;;;;;4998332;28;20198;-78
2020/12/23 03:23:48;;;;;;;1999.90;999.90;;;11.90;99.90;;;;;;4997691;28;20405;-79
2020/12/23 03:26:13;;;;;;;1999.90;999.90;;;11.90;99.90;;;;;;4997013;28;20577;-79
2020/12/23 03:28:40;;;;;;;1999.90;999.90;;;11.90;99.90;;;;;;4995446;28;20205;-79
2020/12/23 03:31:05;;;;;;;1999.90;999.90;;;11.80;99.90;;;;;;4995258;28;20417;-79
2020/12/23 03:33:31;;;;;;;1999.90;999.90;;;11.90;99.90;;;;;;4996287;28;20182;-79
2020/12/23 03:35:58;;;;;;;1999.90;999.90;;;11.80;99.90;;;;;;4996470;28;20197;-79
2020/12/23 03:38:24;;;;;;;1999.90;999.90;;;11.70;99.90;;;;;;4996773;28;20406;-79
2020/12/23 03:40:49;;;;;;;1999.90;999.90;;;11.80;99.90;;;;;;4996176;28;20169;-78
2020/12/23 03:43:15;;;;;;;1999.90;999.90;;;11.80;99.90;;;;;;4994752;28;20541;-78
2020/12/23 03:45:41;;;;;;;1999.90;999.90;;;11.80;99.90;;;;;;4996218;28;20241;-79
2020/12/23 03:48:06;;;;;;;1999.90;999.90;;;11.70;99.90;;;;;;4997442;28;20174;-78
2020/12/23 03:50:34;;;;;;;1999.90;999.90;;;11.70;99.90;;;;;;4995548;28;20452;-78
2020/12/23 03:53:02;;;;;;;1999.90;999.90;;;11.70;99.90;;;;;;4997219;28;20166;-78
2020/12/23 03:55:27;;;;;;;1999.90;999.90;;;11.80;99.90;;;;;;4996174;28;20197;-79
2020/12/23 03:57:53;;;;;;;1999.90;999.90;;;11.80;99.90;;;;;;4995849;28;20166;-79
2020/12/23 04:00:19;;;;;;;1999.90;999.90;;;11.70;99.90;;;;;;4996807;28;20507;-78
2020/12/23 04:02:44;;;;;;;1999.90;999.90;;;11.70;99.90;;;;;;4995090;28;20526;-79
2020/12/23 04:05:10;;;;;;;1999.90;999.90;;;11.70;99.90;;;;;;4996549;28;20410;-79
2020/12/23 04:07:36;;;;;;;1999.90;999.90;;;11.70;99.90;;;;;;4995883;28;20238;-79
2020/12/23 04:10:04;;;;;;;1999.90;999.90;;;11.60;99.90;;;;;;4996685;28;20170;-79
2020/12/23 04:12:29;;;;;;;1999.90;999.90;;;11.60;99.90;;;;;;4996507;28;20198;-80
2020/12/23 04:14:55;;;;;;;1999.90;999.90;;;11.60;99.90;;;;;;4997027;28;20198;-79
2020/12/23 04:17:21;;;;;;;1999.90;999.90;;;11.60;99.90;;;;;;4997402;28;20217;-79
2020/12/23 04:19:46;;;;;;;1999.90;999.90;;;11.60;99.90;;;;;;4997205;28;20173;-79
2020/12/23 04:22:12;;;;;;;1999.90;999.90;;;11.60;99.90;;;;;;4996979;28;20167;-79
2020/12/23 04:24:37;;;;;;;1999.90;999.90;;;11.70;99.90;;;;;;5001065;28;20583;-79
2020/12/23 04:27:03;;;;;;;1999.90;999.90;;;11.70;99.90;;;;;;4999592;28;20261;-79
2020/12/23 04:29:29;;;;;;;1999.90;999.90;;;11.60;99.90;;;;;;5000784;28;20198;-79
2020/12/23 04:31:55;;;;;;;1999.90;999.90;;;11.60;99.90;;;;;;4998990;28;20649;-79
2020/12/23 04:34:20;;;;;;;1999.90;999.90;;;11.60;99.90;;;;;;5000732;28;20174;-79
2020/12/23 04:36:46;;;;;;;1999.90;999.90;;;11.60;99.90;;;;;;5000050;28;20166;-79
2020/12/23 04:39:12;;;;;;;1999.90;999.90;;;11.60;99.90;;;;;;4998684;28;20198;-79
2020/12/23 04:41:37;;;;;;;1999.90;999.90;;;11.60;99.90;;;;;;5001337;28;20685;-79
2020/12/23 04:44:04;;;;;;;1999.90;999.90;;;11.50;99.90;;;;;;5000545;28;20232;-79
2020/12/23 04:46:34;;;;;;;1999.90;999.90;;;11.50;99.90;;;;;;4999749;28;20175;-79
2020/12/23 04:49:04;;;;;;;1999.90;999.90;;;11.50;99.90;;;;;;5000840;28;20246;-78
2020/12/23 04:51:35;;;;;;;1999.90;999.90;;;11.50;99.90;;;;;;5001049;28;20172;-79
2020/12/23 04:54:02;;;;;;;1999.90;999.90;;;11.50;99.90;;;;;;5000164;28;20162;-79
2020/12/23 04:56:30;;;;;;;1999.90;999.90;;;11.50;99.90;;;;;;5000127;28;20249;-79
2020/12/23 04:58:57;;;;;;;1999.90;999.90;;;11.40;99.90;;;;;;5000154;28;20166;-79
2020/12/23 05:01:24;;;;;;;1999.90;999.90;;;11.40;99.90;;;;;;5000048;28;20693;-79
2020/12/23 05:03:51;;;;;;;1999.90;999.90;;;11.50;99.90;;;;;;4998865;28;20182;-79
2020/12/23 05:06:16;;;;;;;1999.90;999.90;;;11.50;99.90;;;;;;4999079;28;20173;-79
2020/12/23 05:08:42;;;;;;;1999.90;999.90;;;11.40;99.90;;;;;;5000829;28;20170;-79
2020/12/23 05:11:09;;;;;;;1999.90;999.90;;;11.40;99.90;;;;;;4998159;28;20261;-79
2020/12/23 05:13:39;;;;;;;1999.90;999.90;;;11.40;99.90;;;;;;4999911;28;20170;-79
2020/12/23 05:16:05;;;;;;;1999.90;999.90;;;11.40;99.90;;;;;;4999262;28;20201;-79
2020/12/23 05:18:39;;;;;;;1999.90;999.90;;;11.40;99.90;;;;;;4999872;28;20228;-79
2020/12/23 05:21:15;;;;;;;1999.90;999.90;;;11.50;99.90;;;;;;4999487;28;20175;-79
2020/12/23 05:23:46;;;;;;;1999.90;999.90;;;11.50;99.90;;;;;;4999538;28;20151;-79
2020/12/23 05:26:13;;;;;;;1999.90;999.90;;;11.40;99.90;;;;;;4998933;28;20170;-79
2020/12/23 05:28:40;;;;;;;1999.90;999.90;;;11.40;99.90;;;;;;4998817;28;20174;-79
2020/12/23 05:31:07;;;;;;;1999.90;999.90;;;11.40;99.90;;;;;;4999218;28;20175;-79
2020/12/23 05:33:37;;;;;;;1999.90;999.90;;;11.50;99.90;;;;;;4999749;28;20177;-79
2020/12/23 05:36:08;;;;;;;1999.90;999.90;;;11.50;99.90;;;;;;4998176;28;20187;-79
2020/12/23 05:38:35;;;;;;;1999.90;999.90;;;11.50;99.90;;;;;;4998859;28;20148;-79
2020/12/23 05:41:02;;;;;;;1999.90;999.90;;;11.50;99.90;;;;;;4999221;28;20170;-79
2020/12/23 05:43:29;;;;;;;1999.90;999.90;;;11.50;99.90;;;;;;4998812;28;20169;-79
2020/12/23 05:45:56;;;;;;;1999.90;999.90;;;11.50;99.90;;;;;;4998895;28;20241;-79
2020/12/23 05:48:22;;;;;;;1999.90;999.90;;;11.60;99.90;;;;;;4998540;28;20185;-78
2020/12/23 05:50:48;;;;;;;1999.90;999.90;;;11.60;99.90;;;;;;4999173;28;20174;-79
2020/12/23 05:53:14;;;;;;;1999.90;999.90;;;11.60;99.90;;;;;;4998749;28;20181;-79
2020/12/23 05:55:47;;;;;;;1999.90;999.90;;;11.60;99.90;;;;;;4998457;28;20446;-79
2020/12/23 05:58:24;;;;;;;1999.90;999.90;;;11.60;99.90;;;;;;4998669;28;20167;-79
2020/12/23 06:00:57;;;;;;;1999.90;999.90;;;11.60;99.90;;;;;;4998495;28;20166;-79
2020/12/23 06:03:33;;;;;;;1999.90;999.90;;;11.70;99.90;;;;;;4998122;28;20269;-79
2020/12/23 06:06:01;;;;;;;1999.90;999.90;;;11.70;99.90;;;;;;4997182;28;20174;-79
2020/12/23 06:08:35;;;;;;;1999.90;999.90;;;11.60;99.90;;;;;;4997129;28;20179;-79
2020/12/23 06:11:30;;;;;;;1999.90;999.90;;;11.60;99.90;;;;;;4998552;28;20196;-79
2020/12/23 06:14:21;;;;;;;1999.90;999.90;;;11.60;99.90;;;;;;4996969;28;20166;-79
2020/12/23 06:16:57;;;;;;;1999.90;999.90;;;11.60;99.90;;;;;;4997482;28;20166;-79
2020/12/23 06:19:36;;;;;;;1999.90;999.90;;;11.60;99.90;;;;;;4998558;28;20151;-79
2020/12/23 06:22:06;;;;;;;1999.90;999.90;;;11.60;99.90;;;;;;4998526;28;20226;-79
2020/12/23 06:24:33;;;;;;;1999.90;999.90;;;11.60;99.90;;;;;;4998618;28;20159;-79
2020/12/23 06:27:03;;;;;;;1999.90;999.90;;;11.60;99.90;;;;;;4998331;28;20648;-79
2020/12/23 06:29:31;;;;;;;1999.90;999.90;;;11.60;99.90;;;;;;4998415;28;20189;-79
2020/12/23 06:31:59;;;;;;;1999.90;999.90;;;11.60;99.90;;;;;;4998223;28;20162;-79
2020/12/23 06:34:29;;;;;;;1999.90;999.90;;;11.60;99.90;;;;;;4998480;28;20189;-79
2020/12/23 06:36:56;;;;;;;1999.90;999.90;;;11.60;99.90;;;;;;4998407;28;20653;-79
2020/12/23 06:39:24;;;;;;;1999.90;999.90;;;11.60;99.90;;;;;;4998138;28;20167;-79
2020/12/23 06:41:52;;;;;;;1999.90;999.90;;;11.60;99.90;;;;;;4997869;28;20170;-79
2020/12/23 06:44:18;;;;;;;1999.90;999.90;;;11.60;99.90;;;;;;4998525;28;20155;-79
2020/12/23 06:46:59;;;;;;;1999.90;999.90;;;11.50;99.90;;;;;;4998558;28;20166;-79
2020/12/23 06:49:39;;;;;;;1999.90;999.90;;;11.50;99.90;;;;;;4998635;28;20250;-79
2020/12/23 06:52:23;;;;;;;1999.90;999.90;;;11.50;99.90;;;;;;4998771;28;20549;-79
2020/12/23 06:54:53;;;;;;;1999.90;999.90;;;11.50;99.90;;;;;;4998816;28;20190;-79
2020/12/23 06:57:35;;;;;;;1999.90;999.90;;;11.50;99.90;;;;;;4998266;28;20170;-79
2020/12/23 07:00:21;;;;;;;1999.90;999.90;;;11.50;99.90;;;;;;4998373;28;20162;-79
2020/12/23 07:02:48;;;;;;;1999.90;999.90;;;11.60;99.90;;;;;;4996519;28;20277;-79
2020/12/23 07:05:34;;;;;;;1999.90;999.90;;;11.50;99.90;;;;;;4997609;28;20166;-79
2020/12/23 07:08:05;;;;;;;1999.90;999.90;;;11.50;99.90;;;;;;4997587;28;20166;-79
2020/12/23 07:10:36;;;;;;;1999.90;999.90;;;11.60;99.90;;;;;;4997514;28;20170;-79
2020/12/23 07:13:13;;;;;;;1999.90;999.90;;;11.50;99.90;;;;;;4998644;28;20163;-79
2020/12/23 07:15:52;;;;;;;1999.90;999.90;;;11.50;99.90;;;;;;4996775;28;20229;-79
2020/12/23 07:18:27;;;;;;;1999.90;999.90;;;11.60;99.90;;;;;;4998574;28;20529;-79
2020/12/23 07:20:52;;;;;;;1999.90;999.90;;;11.50;99.90;;;;;;4998414;28;20621;-80
2020/12/23 07:23:20;;;;;;;1999.90;999.90;;;11.50;99.90;;;;;;4997919;28;20177;-80
2020/12/23 07:25:48;;;;;;;1999.90;999.90;;;11.50;99.90;;;;;;4998128;28;20233;-80
2020/12/23 07:28:17;;;;;;;1999.90;999.90;;;11.50;99.90;;;;;;4998172;28;20166;-80
2020/12/23 07:30:43;;;;;;;1999.90;999.90;;;11.60;99.90;;;;;;4998173;28;20649;-79
2020/12/23 07:33:20;;;;;;;1999.90;999.90;;;11.60;99.90;;;;;;4998051;28;20167;-79
2020/12/23 07:35:48;;;;;;;1999.90;999.90;;;11.60;99.90;;;;;;4997855;28;20191;-79
2020/12/23 07:38:16;;;;;;;1999.90;999.90;;;11.60;99.90;;;;;;4998659;28;20170;-80
2020/12/23 07:40:42;;;;;;;1999.90;999.90;;;11.50;99.90;;;;;;4998099;28;20256;-79
2020/12/23 07:43:08;;;;;;;1999.90;999.90;;;11.60;99.90;;;;;;4997513;28;20167;-80
2020/12/23 07:45:35;;;;;;;1999.90;999.90;;;11.60;99.90;;;;;;4998394;28;20643;-79
2020/12/23 07:48:06;;;;;;;1999.90;999.90;;;11.60;99.90;;;;;;4996794;28;20179;-80
2020/12/23 07:50:37;;;;;;;1999.90;999.90;;;11.60;99.90;;;;;;4998892;28;20174;-80
2020/12/23 07:53:14;;;;;;;1999.90;999.90;;;11.70;99.90;;;;;;4998140;28;20173;-79
2020/12/23 07:55:42;;;;;;;1999.90;999.90;;;11.60;99.90;;;;;;4998713;28;20189;-80
2020/12/23 07:58:08;;;;;;;1999.90;999.90;;;11.70;99.90;;;;;;4997247;28;20165;-79
2020/12/23 08:00:37;;;;;;;1999.90;999.90;;;11.60;99.90;;;;;;4998361;28;20163;-80
2020/12/23 08:03:03;;;;;;;1999.90;999.90;;;11.60;99.90;;;;;;4997029;28;20190;-80
2020/12/23 08:05:29;;;;;;;1999.90;999.90;;;11.60;99.90;;;;;;4996886;28;20170;-80
2020/12/23 08:07:54;;;;;;;1999.90;999.90;;;11.60;99.90;;;;;;4998336;28;20225;-79
2020/12/23 08:10:20;;;;;;;1999.90;999.90;;;11.60;99.90;;;;;;4996968;28;20259;-80
2020/12/23 08:13:03;;;;;;;1999.90;999.90;;;11.60;99.90;;;;;;4998555;28;20242;-80
2020/12/23 08:15:30;;;;;;;1999.90;999.90;;;11.60;99.90;;;;;;4996665;28;20221;-80
2020/12/23 08:18:11;;;;;;;1999.90;999.90;;;11.60;99.90;;;;;;4997271;28;20159;-80
2020/12/23 08:20:37;;;;;;;1999.90;999.90;;;11.60;99.90;;;;;;4996625;28;20634;-80
2020/12/23 08:23:03;;;;;;;1999.90;999.90;;;11.60;99.90;;;;;;4995863;28;20169;-79
2020/12/23 08:25:29;;;;;;;1999.90;999.90;;;11.60;99.90;;;;;;4997636;28;20163;-80
2020/12/23 08:27:57;;;;;;;1999.90;999.90;;;11.60;99.90;;;;;;4996182;28;20434;-79
2020/12/23 08:30:27;;;;;;;1999.90;999.90;;;11.60;99.90;;;;;;4997713;28;20249;-78
2020/12/23 08:33:12;;;;;;;1999.90;999.90;;;11.60;99.90;;;;;;4996531;28;20159;-79
2020/12/23 08:35:42;;;;;;;1999.90;999.90;;;11.60;99.90;;;;;;4996526;28;20265;-78
2020/12/23 08:38:19;;;;;;;1999.90;999.90;;;11.60;99.90;;;;;;4996807;28;20182;-79
2020/12/23 08:40:56;;;;;;;1999.90;999.90;;;11.60;99.90;;;;;;4996391;28;20198;-79
2020/12/23 08:43:29;;;;;;;1999.90;999.90;;;11.70;99.90;;;;;;4997493;28;20506;-78
2020/12/23 08:45:57;;;;;;;1999.90;999.90;;;11.70;99.90;;;;;;4997704;28;20155;-79
2020/12/23 08:48:24;;;;;;;1999.90;999.90;;;11.70;99.90;;;;;;4996983;28;20197;-79
2020/12/23 08:50:58;;;;;;;1999.90;999.90;;;11.70;99.90;;;;;;4997725;28;20191;-79
2020/12/23 08:53:32;;;;;;;1999.90;999.90;;;11.80;99.90;;;;;;4995798;28;20193;-79
2020/12/23 08:56:20;;;;;;;1999.90;999.90;;;11.80;99.90;;;;;;4997725;28;20665;-79
2020/12/23 08:58:49;;;;;;;1999.90;999.90;;;11.80;99.90;;;;;;4997076;28;20657;-79
2020/12/23 09:01:22;;;;;;;1999.90;999.90;;;11.80;99.90;;;;;;4995891;28;20177;-79
2020/12/23 09:04:04;;;;;;;1999.90;999.90;;;11.80;99.90;;;;;;4997758;28;20162;-79
2020/12/23 09:06:29;;;;;;;1999.90;999.90;;;11.80;99.90;;;;;;4997351;28;20565;-79
2020/12/23 09:09:09;;;;;;;1999.90;999.90;;;11.80;99.90;;;;;;4998462;28;20167;-79
2020/12/23 09:11:52;;;;;;;1999.90;999.90;;;11.70;99.90;;;;;;5001138;28;20155;-79
2020/12/23 09:14:29;;;;;;;1999.90;999.90;;;11.90;99.90;;;;;;5070859;23;20155;-82
2020/12/23 09:17:07;;;;;;;1999.90;999.90;;;11.90;99.90;;;;;;4990298;28;20187;-82
2020/12/23 09:20:00;;;;;;;1999.90;999.90;;;11.90;99.90;;;;;;4989524;28;20166;-82
2020/12/23 09:22:50;;;;;;;1999.90;999.90;;;11.90;99.90;;;;;;4986699;28;20515;-81
2020/12/23 09:25:20;;;;;;;1999.90;999.90;;;11.90;99.90;;;;;;4986080;28;20143;-82
2020/12/23 09:28:04;;;;;;;1999.90;999.90;;;11.90;99.90;;;;;;4986355;28;20148;-82
2020/12/23 09:30:36;;;;;;;1999.90;999.90;;;12.00;99.90;;;;;;4990412;28;20163;-82
2020/12/23 09:33:03;;;;;;;1999.90;999.90;;;12.10;99.90;;;;;;4990885;28;20182;-82
2020/12/23 09:35:29;;;;;;;1999.90;999.90;;;12.00;99.90;;;;;;4988866;28;20229;-82
2020/12/23 09:38:18;;;;;;;1999.90;999.90;;;12.10;99.90;;;;;;4983390;28;20629;-82
2020/12/23 09:40:48;;;;;;;1999.90;999.90;;;12.10;99.90;;;;;;4985951;28;20379;-82
2020/12/23 09:43:19;;;;;;;1999.90;999.90;;;12.20;99.90;;;;;;4990243;28;20159;-82
2020/12/23 09:45:47;;;;;;;1999.90;999.90;;;12.30;99.90;;;;;;4986233;28;20183;-82
2020/12/23 09:48:17;;;;;;;1999.90;999.90;;;12.30;99.90;;;;;;4986753;28;20727;-82
2020/12/23 09:50:44;;;;;;;1999.90;999.90;;;12.40;99.90;;;;;;4986283;28;20546;-81
2020/12/23 09:53:11;;;;;;;1999.90;999.90;;;12.30;99.90;;;;;;4983893;28;20172;-81
2020/12/23 09:55:43;;;;;;;1999.90;999.90;;;12.40;99.90;;;;;;4984447;28;20237;-81
2020/12/23 09:58:09;;;;;;;1999.90;999.90;;;12.40;99.90;;;;;;4985431;28;20242;-82
2020/12/23 10:00:35;;;;;;;1999.90;999.90;;;12.40;99.90;;;;;;4983655;28;20181;-82
2020/12/23 10:03:08;;;;;;;1999.90;999.90;;;12.50;99.90;;;;;;4986880;28;20316;-82
2020/12/23 10:05:34;;;;;;;1999.90;999.90;;;12.50;99.90;;;;;;4984826;28;20171;-83
2020/12/23 10:08:00;;;;;;;1999.90;999.90;;;12.50;99.90;;;;;;4988365;28;20178;-82
2020/12/23 10:10:27;;;;;;;1999.90;999.90;;;12.50;99.90;;;;;;4990743;28;20167;-82
2020/12/23 10:12:52;;;;;;;1999.90;999.90;;;12.40;99.90;;;;;;4988721;28;20175;-81
2020/12/23 10:15:18;;;;;;;1999.90;999.90;;;12.40;99.90;;;;;;4983888;28;20670;-81
2020/12/23 10:17:44;;;;;;;1999.90;999.90;;;12.40;99.90;;;;;;4998686;28;20535;-81
2020/12/23 10:20:16;;;;;;;1999.90;999.90;;;12.40;99.90;;;;;;4980265;28;20766;-81
2020/12/23 10:22:42;;;;;;;1999.90;999.90;;;12.30;99.90;;;;;;4980288;28;20163;-81
2020/12/23 10:25:30;;;;;;;1999.90;999.90;;;12.30;99.90;;;;;;4976607;28;20226;-81
2020/12/23 10:28:43;;;;;;;1999.90;999.90;;;12.30;99.90;;;;;;4979190;28;20149;-82
2020/12/23 10:31:10;;;;;;;1999.90;999.90;;;12.20;99.90;;;;;;4978607;28;20761;-81
2020/12/23 10:33:45;;;;;;;1999.90;999.90;;;12.20;99.90;;;;;;4977607;28;20155;-81
2020/12/23 10:39:57;;;;;;;1999.90;999.90;;;12.30;99.90;;;;;;4989161;28;20170;-82
2020/12/23 10:42:27;;;;;;;1999.90;999.90;;;12.30;99.90;;;;;;4995391;28;20171;-81
2020/12/23 10:48:35;;;;;;;1999.90;999.90;;;12.30;99.90;;;;;;4977166;28;20179;-82
2020/12/23 10:51:03;;;;;;;1999.90;999.90;;;12.30;99.90;;;;;;4977816;28;20163;-81
2020/12/23 10:53:32;;;;;;;1999.90;999.90;;;12.30;99.90;;;;;;4978131;28;20179;-81
2020/12/23 10:55:58;;;;;;;1999.90;999.90;;;12.30;99.90;;;;;;4977830;28;20273;-81
2020/12/23 10:58:24;;;;;;;1999.90;999.90;;;12.40;99.90;;;;;;4992179;28;20255;-82
2020/12/23 11:00:50;;;;;;;1999.90;999.90;;;12.40;99.90;;;;;;4979187;28;20395;-82
2020/12/23 11:03:19;;;;;;;1999.90;999.90;;;12.30;99.90;;;;;;4977333;28;20167;-82
2020/12/23 11:05:44;;;;;;;1999.90;999.90;;;12.30;99.90;;;;;;4977029;28;20399;-82
2020/12/23 11:08:13;;;;;;;1999.90;999.90;;;12.20;99.90;;;;;;4977602;28;20531;-82
2020/12/23 11:10:42;;;;;;;1999.90;999.90;;;12.30;99.90;;;;;;4976253;28;20171;-82
2020/12/23 11:13:08;;;;;;;1999.90;999.90;;;12.20;99.90;;;;;;4975517;28;20226;-82
2020/12/23 11:16:25;;;;;;;;;;;;;;;;;;;;;
2020/12/23 11:19:32;;;;;;;1999.90;999.90;;;12.30;99.90;;;;;;4997949;28;20229;-82
2020/12/23 11:22:34;;;;;;;1999.90;999.90;;;12.20;99.90;;;;;;4995293;28;20188;-82
2020/12/23 11:25:09;;;;;;;1999.90;999.90;;;12.20;99.90;;;;;;4975424;28;20185;-82
2020/12/23 11:28:05;;;;;;;1999.90;999.90;;;12.20;99.90;;;;;;4981461;28;20182;-83
2020/12/23 11:30:33;;;;;;;1999.90;999.90;;;12.10;99.90;;;;;;4984661;28;20184;-83
2020/12/23 11:32:59;;;;;;;1999.90;999.90;;;12.10;99.90;;;;;;4986202;28;20615;-83
2020/12/23 11:35:24;;;;;;;1999.90;999.90;;;12.20;99.90;;;;;;4985656;28;20225;-83
2020/12/23 11:37:50;;;;;;;1999.90;999.90;;;12.20;99.90;;;;;;4985047;28;20167;-83
2020/12/23 11:40:16;;;;;;;1999.90;999.90;;;12.20;99.90;;;;;;4984656;28;20163;-82
2020/12/23 11:42:51;;;;;;;1999.90;999.90;;;12.20;99.90;;;;;;4982482;28;20182;-82
2020/12/23 11:45:17;;;;;;;1999.90;999.90;;;12.20;99.90;;;;;;4983527;28;20160;-83
2020/12/23 11:47:49;;;;;;;1999.90;999.90;;;12.20;99.90;;;;;;4985243;28;20529;-83
2020/12/23 11:50:15;;;;;;;1999.90;999.90;;;12.20;99.90;;;;;;4982677;28;20198;-83
2020/12/23 11:52:44;;;;;;;1999.90;999.90;;;12.20;99.90;;;;;;4984099;28;20635;-82
2020/12/23 11:55:09;;;;;;;1999.90;999.90;;;12.30;99.90;;;;;;4983908;28;20246;-84
2020/12/23 11:57:39;;;;;;;1999.90;999.90;;;12.20;99.90;;;;;;4985330;28;20163;-83
2020/12/23 12:00:08;;;;;;;1999.90;999.90;;;12.30;99.90;;;;;;4980704;28;20197;-83
2020/12/23 12:02:36;;;;;;;1999.90;999.90;;;12.30;99.90;;;;;;4981632;28;20167;-83
2020/12/23 12:05:07;;;;;;;1999.90;999.90;;;12.20;99.90;;;;;;4981141;28;20164;-83
2020/12/23 12:07:33;;;;;;;1999.90;999.90;;;12.20;99.90;;;;;;4978984;28;20167;-83
2020/12/23 12:09:59;;;;;;;1999.90;999.90;;;12.20;99.90;;;;;;4981873;28;20202;-83
2020/12/23 12:12:27;;;;;;;1999.90;999.90;;;12.20;99.90;;;;;;4980623;28;20163;-83
2020/12/23 12:14:53;;;;;;;1999.90;999.90;;;12.20;99.90;;;;;;4996592;28;20563;-83
2020/12/23 12:17:19;;;;;;;1999.90;999.90;;;12.30;99.90;;;;;;4996914;28;20266;-83
2020/12/23 12:19:45;;;;;;;1999.90;999.90;;;12.30;99.90;;;;;;4981660;28;20398;-83